Time;durP1;ratioP1;P1;durP2;ratioP2;P2;SDS_P1;SDS_P2;PMS_P1;PMS_P2;Temp;Humidity;BMP_temperature;BMP_pressure;BME280_temperature;BME280_humidity;BME280_pressure;Samples;Min_cycle;Max_cycle;Signal;HPM_P1;HPM_P2
2023/10/18 00:00:57;;;;;;;1.87;1.77;;;;;;;;;;5109316;28;20233;-64
2023/10/18 00:03:26;;;;;;;4.60;1.80;;;;;;;;;;5096742;28;20194;-64
2023/10/18 00:05:55;;;;;;;2.53;1.77;;;;;;;;;;5100821;28;20201;-64
2023/10/18 00:08:23;;;;;;;2.80;1.50;;;;;;;;;;5097214;28;20312;-64
2023/10/18 00:10:50;;;;;;;4.40;2.33;;;;;;;;;;5097118;28;20235;-64
2023/10/18 00:13:19;;;;;;;1.37;1.27;;;;;;;;;;5097446;28;20229;-64
2023/10/18 00:15:52;;;;;;;1.83;1.47;;;;;;;;;;5115500;28;20219;-62
2023/10/18 00:18:21;;;;;;;2.67;1.80;;;;;;;;;;5117720;28;20564;-64
2023/10/18 00:20:58;;;;;;;3.33;1.70;;;;;;;;;;5117692;28;20263;-64
2023/10/18 00:23:26;;;;;;;1.60;1.50;;;;;;;;;;5117280;28;20548;-64
2023/10/18 00:25:54;;;;;;;1.60;1.40;;;;;;;;;;5097133;28;20273;-64
2023/10/18 00:28:22;;;;;;;1.57;1.47;;;;;;;;;;5111303;28;20235;-62
2023/10/18 00:30:52;;;;;;;2.67;1.63;;;;;;;;;;5116578;28;20264;-64
2023/10/18 00:33:20;;;;;;;1.37;1.27;;;;;;;;;;5096138;28;20222;-64
2023/10/18 00:35:48;;;;;;;2.33;1.70;;;;;;;;;;5097341;28;20288;-62
2023/10/18 00:38:18;;;;;;;2.10;1.50;;;;;;;;;;5116519;28;20280;-62
2023/10/18 00:40:51;;;;;;;3.37;1.50;;;;;;;;;;5112318;28;20222;-64
2023/10/18 00:43:21;;;;;;;1.90;1.73;;;;;;;;;;5100846;28;20212;-64
2023/10/18 00:45:50;;;;;;;2.27;1.73;;;;;;;;;;5100412;28;20210;-62
2023/10/18 00:48:25;;;;;;;2.20;1.50;;;;;;;;;;5100698;28;20202;-64
2023/10/18 00:50:54;;;;;;;1.70;1.60;;;;;;;;;;5100580;28;20216;-64
2023/10/18 00:53:23;;;;;;;1.73;1.63;;;;;;;;;;5099875;28;20221;-64
2023/10/18 00:55:57;;;;;;;1.70;1.57;;;;;;;;;;5099215;28;20267;-64
2023/10/18 00:58:27;;;;;;;2.30;1.67;;;;;;;;;;5118291;28;20224;-64
2023/10/18 01:00:56;;;;;;;1.70;1.60;;;;;;;;;;5105443;28;20264;-64
2023/10/18 01:03:32;;;;;;;3.57;1.87;;;;;;;;;;5104426;28;20563;-64
2023/10/18 01:06:03;;;;;;;2.80;1.53;;;;;;;;;;5102431;28;20205;-64
2023/10/18 01:08:32;;;;;;;3.77;1.93;;;;;;;;;;5120325;28;20780;-64
2023/10/18 01:11:04;;;;;;;2.33;1.73;;;;;;;;;;5113496;28;20220;-64
2023/10/18 01:13:34;;;;;;;1.67;1.53;;;;;;;;;;5116970;28;20248;-64
2023/10/18 01:16:06;;;;;;;2.50;1.87;;;;;;;;;;5116684;28;20247;-64
2023/10/18 01:18:36;;;;;;;3.17;1.63;;;;;;;;;;5120635;28;20208;-64
2023/10/18 01:21:13;;;;;;;2.83;1.90;;;;;;;;;;5119427;28;20228;-64
2023/10/18 01:23:44;;;;;;;3.10;1.87;;;;;;;;;;5115044;28;20198;-64
2023/10/18 01:26:14;;;;;;;1.87;1.40;;;;;;;;;;5114825;28;20663;-63
2023/10/18 01:28:42;;;;;;;3.50;1.80;;;;;;;;;;5116751;28;20288;-64
2023/10/18 01:31:12;;;;;;;1.90;1.70;;;;;;;;;;5119343;28;20216;-64
2023/10/18 01:33:43;;;;;;;1.97;1.63;;;;;;;;;;5099454;28;20217;-64
2023/10/18 01:36:14;;;;;;;3.90;1.83;;;;;;;;;;5099066;28;20220;-63
2023/10/18 01:38:43;;;;;;;3.27;1.83;;;;;;;;;;5099221;28;20205;-64
2023/10/18 01:41:16;;;;;;;2.63;1.80;;;;;;;;;;5106963;28;20324;-64
2023/10/18 01:43:47;;;;;;;1.70;1.60;;;;;;;;;;5099382;28;20255;-63
2023/10/18 01:46:17;;;;;;;2.40;1.80;;;;;;;;;;5099269;28;20227;-62
2023/10/18 01:48:50;;;;;;;3.07;2.73;;;;;;;;;;5111884;28;20204;-64
2023/10/18 01:51:21;;;;;;;4.47;1.77;;;;;;;;;;5118439;28;20221;-64
2023/10/18 01:53:50;;;;;;;3.30;1.57;;;;;;;;;;5117099;28;20250;-64
2023/10/18 01:56:21;;;;;;;2.57;1.87;;;;;;;;;;5111326;28;20664;-64
2023/10/18 01:58:51;;;;;;;1.67;1.57;;;;;;;;;;5119776;28;20212;-64
2023/10/18 02:01:19;;;;;;;1.67;1.57;;;;;;;;;;5111331;28;20700;-64
2023/10/18 02:03:50;;;;;;;2.57;1.47;;;;;;;;;;5098848;28;20194;-64
2023/10/18 02:06:20;;;;;;;2.07;1.60;;;;;;;;;;5098634;28;20255;-64
2023/10/18 02:08:49;;;;;;;2.33;1.60;;;;;;;;;;5110140;28;20293;-64
2023/10/18 02:11:17;;;;;;;3.30;1.30;;;;;;;;;;5098826;28;20226;-64
2023/10/18 02:13:46;;;;;;;1.63;1.53;;;;;;;;;;5108452;28;20307;-64
2023/10/18 02:16:16;;;;;;;2.83;1.57;;;;;;;;;;5129984;27;20197;-64
2023/10/18 02:18:46;;;;;;;2.90;1.70;;;;;;;;;;5129250;27;20212;-63
2023/10/18 02:21:15;;;;;;;1.73;1.63;;;;;;;;;;5126716;27;20299;-64
2023/10/18 02:23:48;;;;;;;1.70;1.60;;;;;;;;;;5127030;27;20290;-64
2023/10/18 02:26:30;;;;;;;2.37;1.43;;;;;;;;;;5122905;27;20268;-64
2023/10/18 02:29:05;;;;;;;1.77;1.40;;;;;;;;;;5125342;27;20221;-63
2023/10/18 02:31:36;;;;;;;3.53;1.73;;;;;;;;;;5121230;27;20223;-64
2023/10/18 02:34:05;;;;;;;2.37;1.70;;;;;;;;;;5120536;27;20224;-64
2023/10/18 02:36:53;;;;;;;3.43;1.67;;;;;;;;;;5122460;27;20201;-64
2023/10/18 02:39:27;;;;;;;2.03;1.90;;;;;;;;;;5124517;27;20205;-64
2023/10/18 02:41:57;;;;;;;2.67;1.83;;;;;;;;;;5122923;27;20216;-64
2023/10/18 02:44:25;;;;;;;3.20;1.70;;;;;;;;;;5127674;27;20238;-64
2023/10/18 02:46:55;;;;;;;2.43;1.83;;;;;;;;;;5122246;27;20300;-64
2023/10/18 02:49:27;;;;;;;5.30;2.03;;;;;;;;;;5124464;27;20284;-64
2023/10/18 02:51:57;;;;;;;1.90;1.60;;;;;;;;;;5125481;27;20234;-65
2023/10/18 02:54:25;;;;;;;2.90;1.60;;;;;;;;;;5125001;27;20270;-65
2023/10/18 02:56:55;;;;;;;2.43;2.23;;;;;;;;;;5106401;28;20198;-64
2023/10/18 02:59:24;;;;;;;1.80;1.40;;;;;;;;;;5106490;28;20203;-64
2023/10/18 03:01:55;;;;;;;1.30;1.30;;;;;;;;;;5100647;28;20752;-63
2023/10/18 03:04:26;;;;;;;1.80;1.57;;;;;;;;;;5103146;28;20542;-64
2023/10/18 03:06:55;;;;;;;1.57;1.47;;;;;;;;;;5100847;28;20197;-64
2023/10/18 03:09:38;;;;;;;1.63;1.40;;;;;;;;;;5097293;28;20233;-64
2023/10/18 03:12:13;;;;;;;1.63;1.40;;;;;;;;;;5100266;28;20210;-64
2023/10/18 03:14:53;;;;;;;2.90;2.00;;;;;;;;;;5115353;28;20679;-64
2023/10/18 03:17:24;;;;;;;1.90;1.53;;;;;;;;;;5097126;28;20293;-64
2023/10/18 03:19:55;;;;;;;2.30;1.30;;;;;;;;;;5098065;28;20205;-64
2023/10/18 03:22:29;;;;;;;1.30;1.20;;;;;;;;;;5097320;28;20292;-64
2023/10/18 03:24:59;;;;;;;1.40;1.30;;;;;;;;;;5097130;28;20573;-64
2023/10/18 03:27:29;;;;;;;2.47;1.27;;;;;;;;;;5104914;28;20218;-64
2023/10/18 03:29:58;;;;;;;1.57;1.47;;;;;;;;;;5103088;28;20216;-64
2023/10/18 03:32:28;;;;;;;1.83;1.50;;;;;;;;;;5097940;28;20668;-64
2023/10/18 03:34:56;;;;;;;2.20;1.47;;;;;;;;;;5118132;28;20246;-64
2023/10/18 03:37:26;;;;;;;4.13;1.43;;;;;;;;;;5116101;28;20201;-64
2023/10/18 03:39:55;;;;;;;1.87;1.40;;;;;;;;;;5116843;28;20203;-64
2023/10/18 03:42:32;;;;;;;1.57;1.47;;;;;;;;;;5097878;28;20214;-64
2023/10/18 03:45:00;;;;;;;2.77;1.37;;;;;;;;;;5111012;28;20272;-64
2023/10/18 03:47:36;;;;;;;1.43;1.33;;;;;;;;;;5117865;28;20223;-64
2023/10/18 03:50:06;;;;;;;1.60;1.50;;;;;;;;;;5117046;28;20263;-64
2023/10/18 03:52:34;;;;;;;2.43;1.90;;;;;;;;;;5117242;28;20197;-64
2023/10/18 03:55:13;;;;;;;6.03;1.40;;;;;;;;;;5101205;28;21105;-64
2023/10/18 03:57:41;;;;;;;1.53;1.40;;;;;;;;;;5099998;28;20204;-64
2023/10/18 04:02:56;;;;;;;4.13;1.90;;;;;;;;;;5102311;28;20288;-64
2023/10/18 04:05:37;;;;;;;3.90;1.30;;;;;;;;;;5114314;28;20235;-64
2023/10/18 04:08:06;;;;;;;1.37;1.20;;;;;;;;;;5115172;28;20323;-64
2023/10/18 04:10:37;;;;;;;1.73;1.60;;;;;;;;;;5097227;28;20226;-64
2023/10/18 04:13:11;;;;;;;1.50;1.40;;;;;;;;;;5109601;28;20675;-64
2023/10/18 04:15:39;;;;;;;3.27;1.50;;;;;;;;;;5103431;28;20309;-64
2023/10/18 04:18:13;;;;;;;3.10;1.50;;;;;;;;;;5101438;28;20217;-64
2023/10/18 04:20:43;;;;;;;3.27;1.50;;;;;;;;;;5100997;28;20257;-64
2023/10/18 04:23:18;;;;;;;1.57;1.47;;;;;;;;;;5101185;28;20205;-64
2023/10/18 04:25:57;;;;;;;3.17;1.70;;;;;;;;;;5100865;28;20201;-64
2023/10/18 04:28:25;;;;;;;3.10;1.47;;;;;;;;;;5099778;28;20272;-64
2023/10/18 04:30:59;;;;;;;2.40;1.73;;;;;;;;;;5100084;28;20327;-64
2023/10/18 04:33:34;;;;;;;1.70;1.60;;;;;;;;;;5102598;28;20206;-64
2023/10/18 04:36:06;;;;;;;2.10;1.50;;;;;;;;;;5121421;28;20225;-64
2023/10/18 04:38:39;;;;;;;1.83;1.70;;;;;;;;;;5112697;28;20573;-64
2023/10/18 04:41:08;;;;;;;2.17;1.87;;;;;;;;;;5101049;28;20213;-64
2023/10/18 04:43:36;;;;;;;2.57;1.93;;;;;;;;;;5103528;28;20207;-64
2023/10/18 04:46:14;;;;;;;3.53;1.67;;;;;;;;;;5121048;28;20283;-64
2023/10/18 04:52:01;;;;;;;2.03;1.83;;;;;;;;;;5114604;27;21120;-63
2023/10/18 04:54:36;;;;;;;4.07;2.37;;;;;;;;;;5104790;28;20232;-63
2023/10/18 04:57:09;;;;;;;3.30;1.97;;;;;;;;;;5092814;28;20281;-63
2023/10/18 04:59:44;;;;;;;2.63;1.60;;;;;;;;;;5090482;28;20226;-63
2023/10/18 05:02:17;;;;;;;2.50;1.67;;;;;;;;;;5086858;28;20227;-62
2023/10/18 05:04:46;;;;;;;1.97;1.60;;;;;;;;;;5093899;28;20262;-63
2023/10/18 05:07:17;;;;;;;2.27;1.50;;;;;;;;;;5094895;28;20201;-64
2023/10/18 05:09:44;;;;;;;1.83;1.50;;;;;;;;;;5080428;28;20201;-63
2023/10/18 05:12:27;;;;;;;2.37;1.97;;;;;;;;;;5082942;28;20233;-63
2023/10/18 05:15:09;;;;;;;2.80;1.83;;;;;;;;;;5091418;28;20722;-63
2023/10/18 05:17:42;;;;;;;4.63;1.80;;;;;;;;;;5106473;28;20200;-64
2023/10/18 05:20:22;;;;;;;4.77;2.43;;;;;;;;;;5090262;28;20263;-64
2023/10/18 05:22:52;;;;;;;4.97;2.10;;;;;;;;;;5090276;28;20730;-64
2023/10/18 05:25:29;;;;;;;3.27;2.40;;;;;;;;;;5080387;28;20209;-64
2023/10/18 05:28:07;;;;;;;4.50;2.20;;;;;;;;;;5084204;28;20209;-64
2023/10/18 05:33:47;;;;;;;4.07;2.20;;;;;;;;;;5086857;28;20212;-64
2023/10/18 05:39:18;;;;;;;2.57;2.17;;;;;;;;;;5084175;28;20201;-62
2023/10/18 05:41:45;;;;;;;4.17;2.10;;;;;;;;;;5092662;28;20221;-62
2023/10/18 05:44:14;;;;;;;2.47;1.70;;;;;;;;;;5090164;28;20255;-64
2023/10/18 05:46:42;;;;;;;3.43;2.43;;;;;;;;;;5083276;28;20204;-64
2023/10/18 05:49:23;;;;;;;3.43;2.47;;;;;;;;;;5077611;28;20694;-64
2023/10/18 05:52:15;;;;;;;5.67;2.20;;;;;;;;;;5083979;28;20240;-64
2023/10/18 05:54:46;;;;;;;2.63;2.40;;;;;;;;;;5088647;28;20554;-64
2023/10/18 05:57:19;;;;;;;3.00;1.93;;;;;;;;;;5093352;28;20526;-64
2023/10/18 05:59:48;;;;;;;3.63;2.47;;;;;;;;;;5093932;28;20209;-64
2023/10/18 06:02:22;;;;;;;6.30;2.87;;;;;;;;;;5077783;28;20228;-64
2023/10/18 06:04:54;;;;;;;2.90;2.50;;;;;;;;;;5067644;28;20206;-64
2023/10/18 06:07:24;;;;;;;8.10;3.23;;;;;;;;;;5072422;28;20195;-63
2023/10/18 06:10:00;;;;;;;6.20;2.83;;;;;;;;;;5075418;28;20256;-64
2023/10/18 06:12:30;;;;;;;8.27;3.40;;;;;;;;;;5076960;28;20228;-64
2023/10/18 06:15:10;;;;;;;11.50;3.50;;;;;;;;;;5087483;28;20210;-66
2023/10/18 06:17:53;;;;;;;5.33;2.50;;;;;;;;;;5075438;28;20202;-66
2023/10/18 06:20:28;;;;;;;5.93;2.80;;;;;;;;;;5093825;28;20235;-65
2023/10/18 06:25:44;;;;;;;3.43;2.20;;;;;;;;;;5069447;28;20277;-66
2023/10/18 06:28:19;;;;;;;3.27;2.07;;;;;;;;;;5071076;28;20202;-65
2023/10/18 06:30:51;;;;;;;2.53;2.20;;;;;;;;;;5071151;28;20567;-65
2023/10/18 06:33:20;;;;;;;4.67;2.17;;;;;;;;;;5076306;28;20247;-65
2023/10/18 06:35:52;;;;;;;5.03;2.17;;;;;;;;;;5079618;28;20677;-65
2023/10/18 06:38:22;;;;;;;3.57;2.20;;;;;;;;;;5072657;28;20681;-65
2023/10/18 06:40:53;;;;;;;3.33;2.07;;;;;;;;;;5072685;28;20219;-65
2023/10/18 06:43:33;;;;;;;2.27;1.63;;;;;;;;;;5078399;28;20216;-65
2023/10/18 06:46:08;;;;;;;4.23;2.50;;;;;;;;;;5072183;28;20210;-65
2023/10/18 06:48:37;;;;;;;6.57;2.20;;;;;;;;;;5057961;28;20198;-66
2023/10/18 06:51:11;;;;;;;3.63;2.67;;;;;;;;;;5063046;28;20234;-65
2023/10/18 06:53:47;;;;;;;5.57;2.20;;;;;;;;;;5068325;28;20251;-66
2023/10/18 06:56:20;;;;;;;3.27;2.00;;;;;;;;;;5079156;28;20206;-65
2023/10/18 06:58:48;;;;;;;5.03;2.53;;;;;;;;;;5076724;28;20612;-65
2023/10/18 07:01:20;;;;;;;4.33;2.13;;;;;;;;;;5076727;28;20260;-65
2023/10/18 07:03:49;;;;;;;3.73;2.47;;;;;;;;;;5077153;28;20213;-66
2023/10/18 07:06:18;;;;;;;2.93;1.87;;;;;;;;;;5079242;28;20203;-65
2023/10/18 07:08:49;;;;;;;4.80;2.50;;;;;;;;;;5077240;28;20284;-66
2023/10/18 07:11:21;;;;;;;4.83;2.10;;;;;;;;;;5072658;28;20226;-65
2023/10/18 07:14:12;;;;;;;2.50;2.27;;;;;;;;;;5077791;28;20246;-65
2023/10/18 07:16:41;;;;;;;2.73;1.90;;;;;;;;;;5078925;28;20206;-65
2023/10/18 07:19:25;;;;;;;3.07;1.77;;;;;;;;;;5073572;28;20207;-65
2023/10/18 07:21:52;;;;;;;2.27;1.90;;;;;;;;;;5076794;28;20222;-65
2023/10/18 07:24:21;;;;;;;2.03;1.80;;;;;;;;;;5078636;28;20238;-65
2023/10/18 07:26:53;;;;;;;4.37;2.30;;;;;;;;;;5076037;28;20210;-66
2023/10/18 07:29:21;;;;;;;3.73;1.80;;;;;;;;;;5071386;28;20206;-65
2023/10/18 07:31:53;;;;;;;5.30;1.80;;;;;;;;;;5078169;28;20317;-66
2023/10/18 07:34:28;;;;;;;2.93;1.90;;;;;;;;;;5078254;28;20551;-66
2023/10/18 07:36:57;;;;;;;2.80;1.80;;;;;;;;;;5077403;28;20269;-66
2023/10/18 07:39:26;;;;;;;4.33;2.00;;;;;;;;;;5078047;28;20213;-66
2023/10/18 07:41:55;;;;;;;2.40;1.93;;;;;;;;;;5076567;28;20317;-65
2023/10/18 07:44:23;;;;;;;2.27;1.80;;;;;;;;;;5078236;28;20206;-64
2023/10/18 07:46:52;;;;;;;5.00;2.07;;;;;;;;;;5082417;28;20661;-63
2023/10/18 07:49:20;;;;;;;3.43;1.90;;;;;;;;;;5099065;28;20247;-62
2023/10/18 07:51:50;;;;;;;4.57;1.93;;;;;;;;;;5098201;28;20415;-63
2023/10/18 07:54:20;;;;;;;3.73;2.10;;;;;;;;;;5063293;28;20239;-63
2023/10/18 07:56:54;;;;;;;2.80;1.80;;;;;;;;;;5072075;28;20298;-63
2023/10/18 07:59:29;;;;;;;2.83;1.67;;;;;;;;;;5071885;28;20220;-63
2023/10/18 08:02:09;;;;;;;5.70;2.00;;;;;;;;;;5073231;28;20218;-63
2023/10/18 08:04:38;;;;;;;2.30;1.97;;;;;;;;;;5066231;28;20309;-63
2023/10/18 08:07:10;;;;;;;4.33;2.10;;;;;;;;;;5076767;28;20608;-63
2023/10/18 08:09:41;;;;;;;6.33;2.53;;;;;;;;;;5076733;28;20244;-63
2023/10/18 08:12:19;;;;;;;5.63;2.73;;;;;;;;;;5071966;28;20784;-63
2023/10/18 08:14:48;;;;;;;5.43;2.20;;;;;;;;;;5098255;28;20661;-63
2023/10/18 08:17:42;;;;;;;6.73;2.70;;;;;;;;;;5082776;28;20198;-63
2023/10/18 08:20:40;;;;;;;7.50;3.67;;;;;;;;;;5077894;28;20236;-63
2023/10/18 08:23:18;;;;;;;4.77;2.50;;;;;;;;;;5077585;28;20293;-63
2023/10/18 08:25:51;;;;;;;5.93;2.80;;;;;;;;;;5077917;28;20236;-63
2023/10/18 08:28:19;;;;;;;8.33;2.73;;;;;;;;;;5066409;28;20643;-63
2023/10/18 08:33:31;;;;;;;6.23;2.27;;;;;;;;;;5075903;28;20255;-63
2023/10/18 08:36:06;;;;;;;4.03;2.33;;;;;;;;;;5077919;28;20206;-63
2023/10/18 08:38:35;;;;;;;6.70;2.37;;;;;;;;;;5077672;28;20284;-63
2023/10/18 08:41:13;;;;;;;3.20;2.10;;;;;;;;;;5077545;28;20221;-63
2023/10/18 08:43:52;;;;;;;7.03;2.33;;;;;;;;;;5063410;28;20209;-63
2023/10/18 08:46:26;;;;;;;3.83;2.10;;;;;;;;;;5072792;28;20708;-63
2023/10/18 08:48:56;;;;;;;4.10;2.40;;;;;;;;;;5077661;28;20677;-63
2023/10/18 08:51:26;;;;;;;3.70;2.33;;;;;;;;;;5077265;28;20246;-63
2023/10/18 08:53:55;;;;;;;4.93;1.93;;;;;;;;;;5077570;28;20233;-62
2023/10/18 08:56:29;;;;;;;7.33;2.20;;;;;;;;;;5077400;28;20285;-62
2023/10/18 08:58:59;;;;;;;5.10;2.33;;;;;;;;;;5076500;28;20288;-63
2023/10/18 09:01:34;;;;;;;7.57;2.30;;;;;;;;;;5059971;28;20226;-63
2023/10/18 09:04:01;;;;;;;2.67;1.93;;;;;;;;;;5073105;28;20260;-63
2023/10/18 09:06:31;;;;;;;3.20;2.20;;;;;;;;;;5069468;28;20344;-63
2023/10/18 09:09:05;;;;;;;7.57;2.00;;;;;;;;;;5063308;28;20674;-63
2023/10/18 09:11:34;;;;;;;48.60;29.20;;;;;;;;;;5071211;28;20222;-63
2023/10/18 09:14:10;;;;;;;9.03;5.00;;;;;;;;;;5075116;28;20210;-63
2023/10/18 09:16:40;;;;;;;7.40;2.80;;;;;;;;;;5067133;28;20290;-62
2023/10/18 09:19:09;;;;;;;6.30;2.50;;;;;;;;;;5070402;28;20287;-63
2023/10/18 09:21:50;;;;;;;3.30;2.10;;;;;;;;;;5077058;28;20226;-63
2023/10/18 09:24:23;;;;;;;8.37;2.60;;;;;;;;;;5087468;28;20251;-64
2023/10/18 09:26:51;;;;;;;5.80;2.70;;;;;;;;;;5097304;28;20205;-63
2023/10/18 09:29:19;;;;;;;4.60;2.70;;;;;;;;;;5083217;28;20207;-63
2023/10/18 09:31:52;;;;;;;9.47;2.90;;;;;;;;;;5077249;28;20248;-62
2023/10/18 09:34:23;;;;;;;6.20;2.60;;;;;;;;;;5077244;28;20203;-63
2023/10/18 09:36:56;;;;;;;4.83;2.47;;;;;;;;;;5077087;28;20206;-61
2023/10/18 09:39:37;;;;;;;5.17;2.70;;;;;;;;;;5080613;28;20244;-62
2023/10/18 09:42:06;;;;;;;5.70;3.03;;;;;;;;;;5068500;28;20275;-63
2023/10/18 09:44:34;;;;;;;6.53;3.57;;;;;;;;;;5080836;28;20274;-61
2023/10/18 09:47:04;;;;;;;6.03;2.97;;;;;;;;;;5081030;28;20210;-63
2023/10/18 09:49:34;;;;;;;4.73;3.10;;;;;;;;;;5080163;28;20217;-62
2023/10/18 09:52:07;;;;;;;5.93;2.90;;;;;;;;;;5076483;28;20227;-63
2023/10/18 09:54:36;;;;;;;5.57;2.77;;;;;;;;;;5078302;28;20252;-63
2023/10/18 09:57:07;;;;;;;9.50;3.30;;;;;;;;;;5080374;28;20207;-63
2023/10/18 09:59:40;;;;;;;5.30;2.67;;;;;;;;;;5080564;28;20296;-63
2023/10/18 10:02:15;;;;;;;3.77;2.60;;;;;;;;;;5080313;28;20203;-62
2023/10/18 10:04:43;;;;;;;8.60;3.20;;;;;;;;;;5080329;28;20261;-63
2023/10/18 10:07:38;;;;;;;8.60;3.17;;;;;;;;;;5080568;28;20217;-63
2023/10/18 10:10:17;;;;;;;4.47;2.93;;;;;;;;;;5075123;28;20230;-63
2023/10/18 10:12:49;;;;;;;5.37;2.97;;;;;;;;;;5080094;28;20234;-63
2023/10/18 10:15:17;;;;;;;7.23;3.10;;;;;;;;;;5080058;28;20288;-61
2023/10/18 10:17:56;;;;;;;5.20;3.17;;;;;;;;;;5080359;28;20232;-62
2023/10/18 10:20:31;;;;;;;6.40;2.87;;;;;;;;;;5080095;28;20225;-61
2023/10/18 10:23:02;;;;;;;5.63;3.23;;;;;;;;;;5080199;28;20198;-62
2023/10/18 10:25:32;;;;;;;5.37;2.90;;;;;;;;;;5079791;28;20202;-61
2023/10/18 10:31:44;;;;;;;5.57;3.00;;;;;;;;;;5072672;28;20237;-62
2023/10/18 10:34:19;;;;;;;6.23;3.23;;;;;;;;;;5080028;28;20312;-62
2023/10/18 10:36:47;;;;;;;8.23;3.10;;;;;;;;;;5079507;28;20206;-64
2023/10/18 10:39:30;;;;;;;7.57;3.40;;;;;;;;;;5079885;28;20209;-63
2023/10/18 10:42:08;;;;;;;5.57;3.30;;;;;;;;;;5075794;28;20230;-62
2023/10/18 10:44:55;;;;;;;7.80;3.90;;;;;;;;;;5074148;28;20209;-63
2023/10/18 10:47:29;;;;;;;5.90;3.17;;;;;;;;;;5079459;28;20210;-63
2023/10/18 10:50:07;;;;;;;8.33;3.20;;;;;;;;;;5079351;28;20233;-62
2023/10/18 10:52:40;;;;;;;6.07;3.33;;;;;;;;;;5079564;28;20259;-63
2023/10/18 10:55:18;;;;;;;7.50;3.87;;;;;;;;;;5079217;28;20682;-63
2023/10/18 10:57:47;;;;;;;5.20;3.43;;;;;;;;;;5079337;28;20644;-63
2023/10/18 11:03:25;;;;;;;8.70;3.70;;;;;;;;;;5057559;28;20247;-63
2023/10/18 11:05:58;;;;;;;4.30;3.00;;;;;;;;;;5079612;28;20566;-63
2023/10/18 11:08:27;;;;;;;6.50;3.43;;;;;;;;;;5075679;28;20203;-63
2023/10/18 11:10:57;;;;;;;8.70;3.90;;;;;;;;;;5071485;28;20753;-63
2023/10/18 11:13:26;;;;;;;8.37;3.60;;;;;;;;;;5076430;28;20218;-63
2023/10/18 11:15:54;;;;;;;5.73;3.60;;;;;;;;;;5079117;28;20210;-62
2023/10/18 11:18:34;;;;;;;9.60;3.87;;;;;;;;;;5073192;28;20203;-63
2023/10/18 11:21:18;;;;;;;6.23;3.77;;;;;;;;;;5071206;28;20301;-62
2023/10/18 11:23:50;;;;;;;5.57;3.73;;;;;;;;;;5074625;28;20280;-62
2023/10/18 11:26:23;;;;;;;6.90;3.37;;;;;;;;;;5071456;28;20201;-63
2023/10/18 11:28:55;;;;;;;5.10;4.07;;;;;;;;;;5099077;28;20671;-62
2023/10/18 11:31:26;;;;;;;10.63;3.30;;;;;;;;;;5078825;28;20313;-61
2023/10/18 11:33:59;;;;;;;9.00;4.00;;;;;;;;;;5076222;28;20226;-62
2023/10/18 11:36:30;;;;;;;7.83;3.90;;;;;;;;;;5066129;28;20210;-62
2023/10/18 11:41:44;;;;;;;8.67;4.20;;;;;;;;;;5073734;28;20265;-62
2023/10/18 11:44:16;;;;;;;5.80;3.77;;;;;;;;;;5077330;28;20286;-63
2023/10/18 11:46:47;;;;;;;10.30;4.10;;;;;;;;;;5079200;28;20298;-62
2023/10/18 11:49:18;;;;;;;7.87;3.70;;;;;;;;;;5078209;28;20214;-64
2023/10/18 11:51:49;;;;;;;7.13;4.20;;;;;;;;;;5067994;28;20254;-62
2023/10/18 11:54:30;;;;;;;7.33;4.20;;;;;;;;;;5065543;28;20255;-63
2023/10/18 11:56:58;;;;;;;12.57;5.00;;;;;;;;;;5078404;28;20213;-62
2023/10/18 11:59:28;;;;;;;9.40;3.57;;;;;;;;;;5077906;28;20206;-61
2023/10/18 12:01:57;;;;;;;7.63;2.93;;;;;;;;;;5078236;28;20230;-62
2023/10/18 12:04:29;;;;;;;4.50;2.87;;;;;;;;;;5078001;28;20202;-63
2023/10/18 12:06:58;;;;;;;9.73;3.00;;;;;;;;;;5078334;28;20215;-62
2023/10/18 12:09:26;;;;;;;6.90;3.07;;;;;;;;;;5065007;28;20237;-63
2023/10/18 12:11:55;;;;;;;9.40;3.37;;;;;;;;;;5078045;28;20276;-62
2023/10/18 12:14:23;;;;;;;6.20;2.77;;;;;;;;;;5077748;28;20782;-62
2023/10/18 12:16:54;;;;;;;10.43;2.87;;;;;;;;;;5077888;28;20227;-63
2023/10/18 12:19:22;;;;;;;6.63;2.87;;;;;;;;;;5077947;28;20630;-63
2023/10/18 12:21:54;;;;;;;7.50;2.40;;;;;;;;;;5078500;28;20228;-62
2023/10/18 12:24:24;;;;;;;7.33;3.10;;;;;;;;;;5077918;28;20283;-63
2023/10/18 12:26:54;;;;;;;8.70;4.20;;;;;;;;;;5071788;28;20643;-62
2023/10/18 12:29:27;;;;;;;6.77;3.10;;;;;;;;;;5077970;28;20214;-62
2023/10/18 12:32:07;;;;;;;9.20;2.67;;;;;;;;;;5077884;28;20726;-62
2023/10/18 12:34:36;;;;;;;5.90;2.63;;;;;;;;;;5077598;28;20319;-62
2023/10/18 12:37:07;;;;;;;7.37;2.67;;;;;;;;;;5077864;28;20209;-62
2023/10/18 12:39:46;;;;;;;6.27;2.67;;;;;;;;;;5077235;28;20303;-62
2023/10/18 12:42:14;;;;;;;9.47;3.10;;;;;;;;;;5072122;28;20213;-62
2023/10/18 12:44:46;;;;;;;8.07;2.87;;;;;;;;;;5070305;28;20292;-63
2023/10/18 12:47:19;;;;;;;6.43;2.60;;;;;;;;;;5077782;28;20216;-61
2023/10/18 12:49:50;;;;;;;9.40;2.50;;;;;;;;;;5077258;28;20666;-63
2023/10/18 12:58:01;;;;;;;8.23;3.03;;;;;;;;;;5098054;28;20698;-63
2023/10/18 13:00:34;;;;;;;6.60;2.60;;;;;;;;;;5077377;28;20313;-63
2023/10/18 13:05:52;;;;;;;7.53;2.70;;;;;;;;;;5077553;28;20209;-63
2023/10/18 13:08:27;;;;;;;3.93;2.53;;;;;;;;;;5077492;28;20218;-63
2023/10/18 13:13:44;;;;;;;11.63;2.70;;;;;;;;;;5068473;28;20574;-63
2023/10/18 13:16:15;;;;;;;12.90;7.30;;;;;;;;;;5077457;28;20242;-62
2023/10/18 13:18:43;;;;;;;6.50;3.17;;;;;;;;;;5081405;28;20204;-62
2023/10/18 13:21:13;;;;;;;7.77;3.33;;;;;;;;;;5080942;28;20711;-62
2023/10/18 13:23:44;;;;;;;4.57;2.20;;;;;;;;;;5081265;28;20290;-62
2023/10/18 13:26:18;;;;;;;9.60;3.33;;;;;;;;;;5074109;28;20200;-64
2023/10/18 13:28:52;;;;;;;12.50;3.03;;;;;;;;;;5079330;28;20284;-62
2023/10/18 13:31:22;;;;;;;8.70;3.03;;;;;;;;;;5080241;28;20265;-63
2023/10/18 13:33:53;;;;;;;10.80;2.87;;;;;;;;;;5078994;28;20683;-63
2023/10/18 13:36:22;;;;;;;9.63;2.77;;;;;;;;;;5080004;28;20265;-63
2023/10/18 13:38:50;;;;;;;7.17;2.93;;;;;;;;;;5076660;28;20264;-63
2023/10/18 13:41:19;;;;;;;4.87;2.90;;;;;;;;;;5078841;28;20306;-62
2023/10/18 13:43:48;;;;;;;9.23;2.90;;;;;;;;;;5074622;28;20206;-63
2023/10/18 13:46:19;;;;;;;7.37;2.70;;;;;;;;;;5101025;28;20570;-64
2023/10/18 13:48:50;;;;;;;9.67;2.97;;;;;;;;;;5087643;28;20609;-64
2023/10/18 13:51:19;;;;;;;8.73;3.10;;;;;;;;;;5075418;28;20606;-63
2023/10/18 13:53:47;;;;;;;8.13;2.63;;;;;;;;;;5080611;28;20316;-63
2023/10/18 13:56:15;;;;;;;10.20;3.50;;;;;;;;;;5080426;28;20224;-63
2023/10/18 13:58:45;;;;;;;6.77;2.67;;;;;;;;;;5080322;28;20224;-64
2023/10/18 14:01:14;;;;;;;8.60;2.70;;;;;;;;;;5080116;28;20714;-64
2023/10/18 14:03:43;;;;;;;8.90;3.20;;;;;;;;;;5080387;28;20697;-63
2023/10/18 14:06:11;;;;;;;6.40;2.90;;;;;;;;;;5080239;28;20228;-63
2023/10/18 14:08:43;;;;;;;9.67;3.23;;;;;;;;;;5073088;28;20338;-63
2023/10/18 14:11:12;;;;;;;11.97;3.47;;;;;;;;;;5080177;28;20311;-63
2023/10/18 14:13:41;;;;;;;9.27;3.17;;;;;;;;;;5080982;28;20212;-63
2023/10/18 14:16:12;;;;;;;10.47;3.00;;;;;;;;;;5080244;28;20758;-63
2023/10/18 14:18:42;;;;;;;8.27;2.80;;;;;;;;;;5080414;28;20233;-63
2023/10/18 14:21:13;;;;;;;12.37;2.67;;;;;;;;;;5080581;28;20235;-63
2023/10/18 14:23:41;;;;;;;4.70;2.50;;;;;;;;;;5079147;28;20207;-63
2023/10/18 14:26:09;;;;;;;11.57;3.13;;;;;;;;;;5066961;28;20262;-63
2023/10/18 14:28:37;;;;;;;9.33;3.33;;;;;;;;;;5079857;28;20207;-62
2023/10/18 14:31:12;;;;;;;9.87;3.83;;;;;;;;;;5079769;28;20243;-61
2023/10/18 14:33:40;;;;;;;10.23;3.33;;;;;;;;;;5079960;28;20217;-61
2023/10/18 14:36:20;;;;;;;9.20;2.90;;;;;;;;;;5079795;28;20671;-62
2023/10/18 14:38:48;;;;;;;8.80;3.10;;;;;;;;;;5079793;28;20261;-62
2023/10/18 14:41:18;;;;;;;10.33;3.97;;;;;;;;;;5073313;28;20564;-62
2023/10/18 14:43:59;;;;;;;11.50;3.17;;;;;;;;;;5066464;28;20224;-64
2023/10/18 14:46:29;;;;;;;8.37;3.13;;;;;;;;;;5069527;28;20651;-63
2023/10/18 14:48:59;;;;;;;9.60;3.33;;;;;;;;;;5077632;28;20202;-63
2023/10/18 14:51:29;;;;;;;10.77;3.43;;;;;;;;;;5077293;28;20278;-64
2023/10/18 14:53:57;;;;;;;8.13;2.90;;;;;;;;;;5070128;28;20618;-64
2023/10/18 14:56:25;;;;;;;6.90;3.10;;;;;;;;;;5071781;28;20771;-64
2023/10/18 14:58:55;;;;;;;7.60;3.50;;;;;;;;;;5062262;28;20203;-63
2023/10/18 15:01:23;;;;;;;8.23;3.37;;;;;;;;;;5078468;28;20225;-62
2023/10/18 15:03:53;;;;;;;9.73;3.47;;;;;;;;;;5074101;28;20204;-63
2023/10/18 15:06:21;;;;;;;8.77;3.70;;;;;;;;;;5079318;28;20203;-62
2023/10/18 15:08:50;;;;;;;10.53;3.97;;;;;;;;;;5079168;28;20197;-62
2023/10/18 15:11:19;;;;;;;10.97;3.33;;;;;;;;;;5076984;28;20239;-61
2023/10/18 15:13:48;;;;;;;7.27;3.33;;;;;;;;;;5067225;28;20648;-62
2023/10/18 15:16:17;;;;;;;9.90;3.97;;;;;;;;;;5067660;28;20658;-62
2023/10/18 15:18:46;;;;;;;8.37;3.27;;;;;;;;;;5078823;28;20574;-62
2023/10/18 15:21:16;;;;;;;15.40;4.47;;;;;;;;;;5076327;28;20316;-61
2023/10/18 15:23:44;;;;;;;15.50;3.77;;;;;;;;;;5084455;28;20201;-62
2023/10/18 15:26:16;;;;;;;10.83;3.43;;;;;;;;;;5073066;28;20280;-62
2023/10/18 15:28:48;;;;;;;13.87;4.43;;;;;;;;;;5072366;28;20198;-62
2023/10/18 15:31:18;;;;;;;10.83;3.70;;;;;;;;;;5068362;28;20227;-62
2023/10/18 15:33:46;;;;;;;8.03;3.47;;;;;;;;;;5072788;28;20209;-61
2023/10/18 15:36:17;;;;;;;7.90;2.90;;;;;;;;;;5076885;28;20288;-62
2023/10/18 15:38:48;;;;;;;11.33;3.27;;;;;;;;;;5078507;28;20207;-62
2023/10/18 15:41:19;;;;;;;7.27;3.47;;;;;;;;;;5077147;28;20624;-61
2023/10/18 15:43:51;;;;;;;8.63;3.47;;;;;;;;;;5077610;28;20199;-62
2023/10/18 15:46:25;;;;;;;9.87;3.37;;;;;;;;;;5072729;28;20203;-61
2023/10/18 15:48:53;;;;;;;10.10;3.57;;;;;;;;;;5071091;28;20277;-62